createdAt,value
2022-09-28T00:00:58.434Z,841.29
2022-09-28T00:01:58.567Z,841.29
2022-09-28T00:02:58.445Z,841.33
2022-09-28T00:03:58.389Z,841.35
2022-09-28T00:04:58.381Z,841.33
2022-09-28T00:05:58.368Z,841.27
2022-09-28T00:06:58.383Z,841.25
2022-09-28T00:07:58.453Z,841.28
2022-09-28T00:08:58.332Z,841.31
2022-09-28T00:09:58.348Z,841.30
2022-09-28T00:10:58.319Z,841.30
2022-09-28T00:11:58.300Z,841.31
2022-09-28T00:12:58.323Z,841.30
2022-09-28T00:13:58.301Z,841.26
2022-09-28T00:14:58.269Z,841.24
2022-09-28T00:15:58.315Z,841.29
2022-09-28T00:16:58.246Z,841.23
2022-09-28T00:17:58.245Z,841.17
2022-09-28T00:18:58.225Z,841.19
2022-09-28T00:19:58.225Z,841.14
2022-09-28T00:20:58.208Z,841.14
2022-09-28T00:21:58.204Z,841.13
2022-09-28T00:22:58.182Z,841.13
2022-09-28T00:23:58.170Z,841.08
2022-09-28T00:24:58.173Z,841.10
2022-09-28T00:25:58.176Z,841.07
2022-09-28T00:26:58.156Z,840.99
2022-09-28T00:27:58.131Z,841.03
2022-09-28T00:28:58.123Z,841.00
2022-09-28T00:29:58.120Z,841.03
2022-09-28T00:30:58.106Z,841.01
2022-09-28T00:31:58.160Z,841.01
2022-09-28T00:32:58.080Z,841.02
2022-09-28T00:33:58.077Z,841.00
2022-09-28T00:34:58.057Z,840.98
2022-09-28T00:35:58.040Z,841.02
2022-09-28T00:36:58.032Z,841.09
2022-09-28T00:37:58.024Z,841.10
2022-09-28T00:38:58.020Z,841.08
2022-09-28T00:39:58.111Z,841.14
2022-09-28T00:40:58.074Z,841.14
2022-09-28T00:41:58.002Z,841.15
2022-09-28T00:42:57.972Z,841.16
2022-09-28T00:43:57.967Z,841.20
2022-09-28T00:44:57.949Z,841.20
2022-09-28T00:45:58.010Z,841.18
2022-09-28T00:46:57.926Z,841.11
2022-09-28T00:47:57.910Z,841.13
2022-09-28T00:48:57.901Z,841.09
2022-09-28T00:49:57.890Z,841.05
2022-09-28T00:50:57.882Z,841.09
2022-09-28T00:51:57.882Z,841.10
2022-09-28T00:52:57.862Z,841.12
2022-09-28T00:53:57.848Z,841.16
2022-09-28T00:54:57.838Z,841.10
2022-09-28T00:55:57.838Z,841.03
2022-09-28T00:56:57.812Z,840.96
2022-09-28T00:57:57.889Z,840.97
2022-09-28T00:58:57.793Z,840.91
2022-09-28T00:59:57.782Z,840.93
2022-09-28T01:00:57.927Z,840.88
2022-09-28T01:01:57.803Z,840.88
2022-09-28T01:02:57.749Z,840.86
2022-09-28T01:03:57.749Z,840.90
2022-09-28T01:04:57.740Z,840.88
2022-09-28T01:05:57.721Z,840.87
2022-09-28T01:06:57.711Z,840.77
2022-09-28T01:07:57.713Z,840.73
2022-09-28T01:08:57.681Z,840.66
2022-09-28T01:09:57.674Z,840.59
2022-09-28T01:10:57.664Z,840.51
2022-09-28T01:11:57.654Z,840.52
2022-09-28T01:12:57.749Z,840.55
2022-09-28T01:13:57.664Z,840.53
2022-09-28T01:14:57.624Z,840.49
2022-09-28T01:15:57.660Z,840.38
2022-09-28T01:16:57.598Z,840.32
2022-09-28T01:17:57.586Z,840.31
2022-09-28T01:18:57.592Z,840.32
2022-09-28T01:19:57.576Z,840.33
2022-09-28T01:20:57.552Z,840.34
2022-09-28T01:21:57.550Z,840.30
2022-09-28T01:22:57.532Z,840.27
2022-09-28T01:23:57.534Z,840.25
2022-09-28T01:24:57.516Z,840.17
2022-09-28T01:25:57.499Z,840.21
2022-09-28T01:26:57.496Z,840.31
2022-09-28T01:27:57.488Z,840.30
2022-09-28T01:28:57.471Z,840.16
2022-09-28T01:29:57.480Z,840.15
2022-09-28T01:30:57.451Z,840.20
2022-09-28T01:31:57.479Z,840.27
2022-09-28T01:32:57.427Z,840.28
2022-09-28T01:33:57.420Z,840.25
2022-09-28T01:34:57.397Z,840.13
2022-09-28T01:35:57.386Z,840.12
2022-09-28T01:36:57.379Z,840.14
2022-09-28T01:37:57.366Z,840.18
2022-09-28T01:38:57.355Z,840.14
2022-09-28T01:39:57.363Z,840.12
2022-09-28T01:40:57.411Z,840.11
2022-09-28T01:41:57.328Z,840.08
2022-09-28T01:42:57.311Z,840.02
2022-09-28T01:43:57.303Z,840.05
2022-09-28T01:44:57.288Z,839.96
2022-09-28T01:45:57.363Z,839.92
2022-09-28T01:46:57.275Z,839.97
2022-09-28T01:47:57.260Z,839.93
2022-09-28T01:48:57.262Z,839.98
2022-09-28T01:49:57.236Z,840.00
2022-09-28T01:50:57.273Z,839.95
2022-09-28T01:51:57.227Z,839.90
2022-09-28T01:52:57.640Z,839.87
2022-09-28T01:53:57.193Z,839.82
2022-09-28T01:54:57.194Z,839.75
2022-09-28T01:55:57.176Z,839.73
2022-09-28T01:56:57.163Z,839.63
2022-09-28T01:57:57.151Z,839.62
2022-09-28T01:58:57.159Z,839.49
2022-09-28T01:59:57.128Z,839.50
2022-09-28T02:00:57.195Z,839.57
2022-09-28T02:01:57.190Z,839.55
2022-09-28T02:02:57.097Z,839.51
2022-09-28T02:03:57.092Z,839.51
2022-09-28T02:04:57.078Z,839.40
2022-09-28T02:05:57.062Z,839.39
2022-09-28T02:06:57.049Z,839.40
2022-09-28T02:07:57.042Z,839.40
2022-09-28T02:08:57.041Z,839.33
2022-09-28T02:09:57.017Z,839.27
2022-09-28T02:10:57.007Z,839.29
2022-09-28T02:11:57.007Z,839.29
2022-09-28T02:12:57.006Z,839.24
2022-09-28T02:13:57.042Z,839.25
2022-09-28T02:14:56.976Z,839.24
2022-09-28T02:15:57.044Z,839.21
2022-09-28T02:16:57.026Z,839.25
2022-09-28T02:17:56.956Z,839.21
2022-09-28T02:18:56.931Z,839.21
2022-09-28T02:19:56.911Z,839.16
2022-09-28T02:20:56.897Z,839.13
2022-09-28T02:21:56.973Z,839.14
2022-09-28T02:22:56.877Z,839.16
2022-09-28T02:23:56.869Z,839.20
2022-09-28T02:24:56.866Z,839.19
2022-09-28T02:25:56.850Z,839.22
2022-09-28T02:26:56.835Z,839.28
2022-09-28T02:27:56.933Z,839.24
2022-09-28T02:28:56.815Z,839.25
2022-09-28T02:29:56.809Z,839.21
2022-09-28T02:30:56.807Z,839.22
2022-09-28T02:31:56.845Z,839.27
2022-09-28T02:32:56.774Z,839.32
2022-09-28T02:33:56.837Z,839.29
2022-09-28T02:34:56.810Z,839.27
2022-09-28T02:35:56.758Z,839.29
2022-09-28T02:36:56.723Z,839.29
2022-09-28T02:37:56.718Z,839.35
2022-09-28T02:38:56.704Z,839.36
2022-09-28T02:39:56.754Z,839.35
2022-09-28T02:40:56.725Z,839.37
2022-09-28T02:41:56.682Z,839.34
2022-09-28T02:42:56.658Z,839.33
2022-09-28T02:43:56.646Z,839.31
2022-09-28T02:44:56.634Z,839.26
2022-09-28T02:45:56.733Z,839.21
2022-09-28T02:46:56.629Z,839.22
2022-09-28T02:47:56.604Z,839.17
2022-09-28T02:49:17.488Z,839.15
2022-09-28T02:49:57.667Z,839.08
2022-09-28T02:50:56.581Z,838.99
2022-09-28T02:51:56.575Z,838.92
2022-09-28T02:52:56.554Z,838.84
2022-09-28T02:53:56.542Z,838.83
2022-09-28T02:54:56.529Z,838.81
2022-09-28T02:55:56.525Z,838.82
2022-09-28T02:56:56.543Z,838.76
2022-09-28T02:57:56.598Z,838.76
2022-09-28T02:58:56.488Z,838.77
2022-09-28T02:59:56.477Z,838.78
2022-09-28T03:00:56.512Z,838.86
2022-09-28T03:01:56.524Z,838.84
2022-09-28T03:02:56.534Z,838.84
2022-09-28T03:03:56.430Z,838.80
2022-09-28T03:04:56.418Z,838.77
2022-09-28T03:05:56.436Z,838.81
2022-09-28T03:06:56.398Z,838.85
2022-09-28T03:07:56.391Z,838.88
2022-09-28T03:08:56.507Z,838.85
2022-09-28T03:09:56.367Z,838.82
2022-09-28T03:10:56.354Z,838.75
2022-09-28T03:11:56.348Z,838.68
2022-09-28T03:12:56.363Z,838.60
2022-09-28T03:13:56.323Z,838.62
2022-09-28T03:14:56.317Z,838.68
2022-09-28T03:15:56.402Z,838.73
2022-09-28T03:16:56.294Z,838.72
2022-09-28T03:17:56.278Z,838.74
2022-09-28T03:18:56.284Z,838.68
2022-09-28T03:19:56.259Z,838.70
2022-09-28T03:20:56.246Z,838.61
2022-09-28T03:21:56.303Z,838.57
2022-09-28T03:23:22.767Z,838.58
2022-09-28T03:23:57.228Z,838.57
2022-09-28T03:24:56.210Z,838.61
2022-09-28T03:25:56.198Z,838.59
2022-09-28T03:26:56.203Z,838.59
2022-09-28T03:27:56.244Z,838.57
2022-09-28T03:28:56.163Z,838.53
2022-09-28T03:29:56.167Z,838.55
2022-09-28T03:30:56.141Z,838.46
2022-09-28T03:31:56.189Z,838.43
2022-09-28T03:32:56.123Z,838.40
2022-09-28T03:33:56.277Z,838.38
2022-09-28T03:34:56.098Z,838.48
2022-09-28T03:35:56.297Z,838.56
2022-09-28T03:36:56.077Z,838.46
2022-09-28T03:37:56.086Z,838.37
2022-09-28T03:38:56.051Z,838.37
2022-09-28T03:39:56.117Z,838.40
2022-09-28T03:40:56.103Z,838.40
2022-09-28T03:41:56.031Z,838.45
2022-09-28T03:42:56.007Z,838.44
2022-09-28T03:43:56.012Z,838.36
2022-09-28T03:44:55.992Z,838.37
2022-09-28T03:45:56.133Z,838.35
2022-09-28T03:46:55.974Z,838.40
2022-09-28T03:47:55.956Z,838.43
2022-09-28T03:48:55.967Z,838.46
2022-09-28T03:49:55.934Z,838.33
2022-09-28T03:50:55.928Z,838.31
2022-09-28T03:51:55.999Z,838.32
2022-09-28T03:52:55.902Z,838.38
2022-09-28T03:53:55.930Z,838.43
2022-09-28T03:54:55.893Z,838.31
2022-09-28T03:55:55.870Z,838.31
2022-09-28T03:56:55.871Z,838.26
2022-09-28T03:57:55.913Z,838.28
2022-09-28T03:58:55.834Z,838.23
2022-09-28T03:59:55.834Z,838.22
2022-09-28T04:00:55.940Z,838.30
2022-09-28T04:01:55.859Z,838.27
2022-09-28T04:02:55.840Z,838.26
2022-09-28T04:03:55.838Z,838.25
2022-09-28T04:04:55.772Z,838.27
2022-09-28T04:05:55.760Z,838.18
2022-09-28T04:06:55.772Z,838.19
2022-09-28T04:07:55.735Z,838.16
2022-09-28T04:08:55.745Z,838.08
2022-09-28T04:09:55.798Z,838.01
2022-09-28T04:10:55.708Z,837.92
2022-09-28T04:12:03.750Z,837.91
2022-09-28T04:12:56.696Z,837.91
2022-09-28T04:13:55.676Z,837.99
2022-09-28T04:14:55.665Z,838.00
2022-09-28T04:15:55.871Z,838.00
2022-09-28T04:16:55.638Z,838.02
2022-09-28T04:17:55.688Z,837.92
2022-09-28T04:18:55.628Z,837.85
2022-09-28T04:19:55.606Z,837.85
2022-09-28T04:20:55.596Z,837.94
2022-09-28T04:21:55.589Z,837.89
2022-09-28T04:22:55.588Z,837.93
2022-09-28T04:23:55.574Z,837.94
2022-09-28T04:24:55.551Z,837.96
2022-09-28T04:25:55.569Z,837.96
2022-09-28T04:26:55.530Z,838.00
2022-09-28T04:27:55.584Z,837.97
2022-09-28T04:28:55.527Z,837.93
2022-09-28T04:29:55.496Z,837.96
2022-09-28T04:30:55.564Z,838.01
2022-09-28T04:31:55.640Z,838.02
2022-09-28T04:32:55.465Z,837.99
2022-09-28T04:33:55.530Z,838.02
2022-09-28T04:34:55.464Z,838.04
2022-09-28T04:35:55.435Z,838.05
2022-09-28T04:36:55.423Z,838.07
2022-09-28T04:37:55.414Z,838.06
2022-09-28T04:38:55.414Z,838.08
2022-09-28T04:39:55.448Z,838.06
2022-09-28T04:40:55.448Z,838.07
2022-09-28T04:41:55.396Z,838.07
2022-09-28T04:42:55.359Z,838.07
2022-09-28T04:43:55.359Z,838.08
2022-09-28T04:44:55.338Z,838.12
2022-09-28T04:45:55.475Z,838.16
2022-09-28T04:46:55.314Z,838.17
2022-09-28T04:47:55.304Z,838.17
2022-09-28T04:48:55.295Z,838.14
2022-09-28T04:49:55.296Z,838.13
2022-09-28T04:50:55.270Z,838.12
2022-09-28T04:51:55.324Z,838.13
2022-09-28T04:52:55.253Z,838.15
2022-09-28T04:53:55.241Z,838.11
2022-09-28T04:54:55.229Z,838.11
2022-09-28T04:55:55.225Z,838.06
2022-09-28T04:56:55.226Z,838.10
2022-09-28T04:57:55.498Z,838.09
2022-09-28T04:58:55.190Z,838.07
2022-09-28T04:59:55.173Z,838.06
2022-09-28T05:00:55.261Z,838.03
2022-09-28T05:01:55.278Z,838.09
2022-09-28T05:02:55.152Z,838.15
2022-09-28T05:03:55.129Z,838.13
2022-09-28T05:04:55.177Z,838.12
2022-09-28T05:05:55.109Z,838.13
2022-09-28T05:06:55.097Z,838.16
2022-09-28T05:07:55.098Z,838.14
2022-09-28T05:08:55.118Z,838.13
2022-09-28T05:09:55.071Z,838.15
2022-09-28T05:10:55.143Z,838.10
2022-09-28T05:11:55.057Z,838.13
2022-09-28T05:12:55.035Z,838.12
2022-09-28T05:13:55.049Z,838.13
2022-09-28T05:14:55.022Z,838.23
2022-09-28T05:15:58.812Z,838.19
2022-09-28T05:16:56.124Z,838.19
2022-09-28T05:17:54.996Z,838.20
2022-09-28T05:18:54.985Z,838.18
2022-09-28T05:19:54.974Z,838.24
2022-09-28T05:20:54.948Z,838.23
2022-09-28T05:21:54.940Z,838.28
2022-09-28T05:22:54.989Z,838.28
2022-09-28T05:23:54.925Z,838.33
2022-09-28T05:24:54.916Z,838.33
2022-09-28T05:25:54.895Z,838.32
2022-09-28T05:26:54.884Z,838.34
2022-09-28T05:27:54.885Z,838.38
2022-09-28T05:28:54.932Z,838.38
2022-09-28T05:29:54.929Z,838.43
2022-09-28T05:30:54.839Z,838.41
2022-09-28T05:31:54.892Z,838.34
2022-09-28T05:32:54.817Z,838.37
2022-09-28T05:33:54.825Z,838.38
2022-09-28T05:34:54.797Z,838.34
2022-09-28T05:35:59.035Z,838.40
2022-09-28T05:36:55.775Z,838.35
2022-09-28T05:37:54.764Z,838.39
2022-09-28T05:38:54.752Z,838.41
2022-09-28T05:39:54.752Z,838.40
2022-09-28T05:40:54.803Z,838.39
2022-09-28T05:41:54.829Z,838.41
2022-09-28T05:42:54.708Z,838.42
2022-09-28T05:43:54.700Z,838.41
2022-09-28T05:44:54.686Z,838.39
2022-09-28T05:45:55.907Z,838.43
2022-09-28T05:46:54.676Z,838.39
2022-09-28T05:47:54.724Z,838.40
2022-09-28T05:48:54.645Z,838.44
2022-09-28T05:49:54.634Z,838.40
2022-09-28T05:50:54.623Z,838.35
2022-09-28T05:51:54.628Z,838.35
2022-09-28T05:52:54.598Z,838.36
2022-09-28T05:53:54.692Z,838.36
2022-09-28T05:54:54.583Z,838.37
2022-09-28T05:55:54.572Z,838.44
2022-09-28T05:56:54.563Z,838.39
2022-09-28T05:57:54.560Z,838.38
2022-09-28T05:58:54.538Z,838.46
2022-09-28T05:59:54.533Z,838.45
2022-09-28T06:00:54.542Z,838.43
2022-09-28T06:01:54.532Z,838.37
2022-09-28T06:02:54.505Z,838.37
2022-09-28T06:03:54.485Z,838.38
2022-09-28T06:04:54.469Z,838.32
2022-09-28T06:05:54.518Z,838.29
2022-09-28T06:06:54.447Z,838.28
2022-09-28T06:07:54.449Z,838.37
2022-09-28T06:08:54.431Z,838.42
2022-09-28T06:09:54.415Z,838.38
2022-09-28T06:10:54.488Z,838.36
2022-09-28T06:11:54.395Z,838.34
2022-09-28T06:12:54.387Z,838.32
2022-09-28T06:13:54.372Z,838.37
2022-09-28T06:14:54.364Z,838.35
2022-09-28T06:15:54.351Z,838.30
2022-09-28T06:16:54.562Z,838.29
2022-09-28T06:17:54.361Z,838.31
2022-09-28T06:18:54.320Z,838.31
2022-09-28T06:19:54.305Z,838.33
2022-09-28T06:20:54.297Z,838.31
2022-09-28T06:21:54.287Z,838.35
2022-09-28T06:22:54.390Z,838.35
2022-09-28T06:23:54.262Z,838.36
2022-09-28T06:24:54.249Z,838.40
2022-09-28T06:25:54.242Z,838.40
2022-09-28T06:26:54.228Z,838.41
2022-09-28T06:27:54.218Z,838.37
2022-09-28T06:28:54.274Z,838.39
2022-09-28T06:29:54.196Z,838.40
2022-09-28T06:30:54.359Z,838.39
2022-09-28T06:31:54.281Z,838.37
2022-09-28T06:32:54.181Z,838.40
2022-09-28T06:33:54.196Z,838.40
2022-09-28T06:34:56.457Z,838.43
2022-09-28T06:35:54.197Z,838.47
2022-09-28T06:36:54.123Z,838.47
2022-09-28T06:37:54.111Z,838.46
2022-09-28T06:38:54.103Z,838.46
2022-09-28T06:39:54.106Z,838.50
2022-09-28T06:40:54.142Z,838.51
2022-09-28T06:41:54.108Z,838.53
2022-09-28T06:42:54.057Z,838.51
2022-09-28T06:43:54.045Z,838.52
2022-09-28T06:44:54.037Z,838.51
2022-09-28T06:45:54.044Z,838.56
2022-09-28T06:46:54.015Z,838.53
2022-09-28T06:47:54.078Z,838.56
2022-09-28T06:48:53.994Z,838.51
2022-09-28T06:49:54.101Z,838.51
2022-09-28T06:50:53.968Z,838.50
2022-09-28T06:51:53.958Z,838.52
2022-09-28T06:52:53.946Z,838.51
2022-09-28T06:53:54.021Z,838.51
2022-09-28T06:54:53.930Z,838.54
2022-09-28T06:55:53.926Z,838.55
2022-09-28T06:56:53.915Z,838.52
2022-09-28T06:57:53.900Z,838.51
2022-09-28T06:58:53.885Z,838.54
2022-09-28T06:59:53.941Z,838.57
2022-09-28T07:00:53.890Z,838.50
2022-09-28T07:01:53.962Z,838.54
2022-09-28T07:02:53.841Z,838.54
2022-09-28T07:03:55.835Z,838.51
2022-09-28T07:04:53.816Z,838.49
2022-09-28T07:05:53.890Z,838.54
2022-09-28T07:06:53.795Z,838.56
2022-09-28T07:07:53.795Z,838.58
2022-09-28T07:09:02.205Z,838.60
2022-09-28T07:09:55.542Z,838.58
2022-09-28T07:10:53.753Z,838.60
2022-09-28T07:11:53.807Z,838.58
2022-09-28T07:12:53.732Z,838.58
2022-09-28T07:13:53.738Z,838.60
2022-09-28T07:14:54.317Z,838.56
2022-09-28T07:15:53.698Z,838.55
2022-09-28T07:17:11.849Z,838.57
2022-09-28T07:18:01.360Z,838.61
2022-09-28T07:18:54.678Z,838.58
2022-09-28T07:19:53.655Z,838.61
2022-09-28T07:20:54.766Z,838.62
2022-09-28T07:22:02.466Z,838.60
2022-09-28T07:22:54.626Z,838.67
2022-09-28T07:23:54.295Z,838.67
2022-09-28T07:24:53.610Z,838.65
2022-09-28T07:25:53.585Z,838.61
2022-09-28T07:26:53.574Z,838.57
2022-09-28T07:27:53.564Z,838.70
2022-09-28T07:28:53.564Z,838.73
2022-09-28T07:29:53.600Z,838.77
2022-09-28T07:30:53.575Z,838.79
2022-09-28T07:31:53.524Z,838.78
2022-09-28T07:32:53.513Z,838.77
2022-09-28T07:33:53.512Z,838.75
2022-09-28T07:34:58.126Z,838.79
2022-09-28T07:35:54.572Z,838.79
2022-09-28T07:36:53.466Z,838.74
2022-09-28T07:37:53.504Z,838.74
2022-09-28T07:38:53.443Z,838.80
2022-09-28T07:39:53.435Z,838.83
2022-09-28T07:40:53.534Z,838.82
2022-09-28T07:41:56.659Z,838.78
2022-09-28T07:42:54.401Z,838.79
2022-09-28T07:43:53.388Z,838.80
2022-09-28T07:44:53.380Z,838.75
2022-09-28T07:45:53.414Z,838.82
2022-09-28T07:46:53.369Z,838.85
2022-09-28T07:47:53.448Z,838.80
2022-09-28T07:48:53.342Z,838.83
2022-09-28T07:49:53.321Z,838.88
2022-09-28T07:50:53.316Z,838.88
2022-09-28T07:51:53.306Z,838.87
2022-09-28T07:52:53.308Z,838.91
2022-09-28T07:53:53.305Z,838.96
2022-09-28T07:54:53.268Z,839.00
2022-09-28T07:55:53.257Z,839.00
2022-09-28T07:56:53.247Z,838.94
2022-09-28T07:57:53.237Z,838.97
2022-09-28T07:58:53.317Z,839.06
2022-09-28T07:59:53.212Z,839.05
2022-09-28T08:00:53.248Z,839.04
2022-09-28T08:01:53.305Z,839.02
2022-09-28T08:02:53.184Z,838.99
2022-09-28T08:03:53.183Z,839.00
2022-09-28T08:04:53.162Z,839.02
2022-09-28T08:05:53.357Z,839.03
2022-09-28T08:06:53.212Z,839.02
2022-09-28T08:07:53.127Z,839.08
2022-09-28T08:08:53.133Z,839.01
2022-09-28T08:09:53.340Z,839.04
2022-09-28T08:10:53.165Z,838.99
2022-09-28T08:11:53.082Z,839.02
2022-09-28T08:12:53.133Z,839.05
2022-09-28T08:13:53.061Z,839.03
2022-09-28T08:14:53.061Z,839.05
2022-09-28T08:15:53.039Z,839.12
2022-09-28T08:16:53.419Z,839.06
2022-09-28T08:17:53.017Z,839.09
2022-09-28T08:18:53.060Z,839.14
2022-09-28T08:19:53.009Z,839.13
2022-09-28T08:20:52.986Z,839.09
2022-09-28T08:21:52.980Z,839.11
2022-09-28T08:22:52.966Z,839.13
2022-09-28T08:23:52.972Z,839.10
2022-09-28T08:24:53.001Z,839.11
2022-09-28T08:25:52.991Z,839.12
2022-09-28T08:26:52.928Z,839.01
2022-09-28T08:27:52.909Z,839.02
2022-09-28T08:28:52.897Z,839.02
2022-09-28T08:29:52.895Z,839.01
2022-09-28T08:30:52.948Z,838.98
2022-09-28T08:31:52.863Z,838.96
2022-09-28T08:32:52.861Z,838.99
2022-09-28T08:33:52.842Z,838.98
2022-09-28T08:34:52.847Z,838.96
2022-09-28T08:35:52.822Z,838.98
2022-09-28T08:36:52.892Z,838.99
2022-09-28T08:37:55.511Z,839.02
2022-09-28T08:38:52.790Z,839.09
2022-09-28T08:39:52.791Z,839.04
2022-09-28T08:40:52.922Z,839.07
2022-09-28T08:41:52.777Z,839.09
2022-09-28T08:42:52.813Z,839.13
2022-09-28T08:43:52.742Z,839.13
2022-09-28T08:44:52.726Z,839.12
2022-09-28T08:45:52.720Z,839.13
2022-09-28T08:46:52.810Z,839.16
2022-09-28T08:47:52.689Z,839.13
2022-09-28T08:49:13.343Z,839.10
2022-09-28T08:50:52.658Z,839.21
2022-09-28T08:51:52.645Z,839.17
2022-09-28T08:52:52.647Z,839.16
2022-09-28T08:53:52.624Z,839.24
2022-09-28T08:54:52.705Z,839.15
2022-09-28T08:55:52.605Z,839.19
2022-09-28T08:56:52.594Z,839.19
2022-09-28T08:57:52.614Z,839.26
2022-09-28T08:58:52.570Z,839.21
2022-09-28T08:59:52.559Z,839.22
2022-09-28T09:00:52.634Z,839.22
2022-09-28T09:01:55.660Z,839.16
2022-09-28T09:02:52.615Z,839.16
2022-09-28T09:03:52.521Z,839.07
2022-09-28T09:04:52.505Z,839.05
2022-09-28T09:05:52.493Z,839.04
2022-09-28T09:06:52.549Z,839.00
2022-09-28T09:07:52.475Z,838.98
2022-09-28T09:08:52.489Z,838.94
2022-09-28T09:09:52.451Z,839.02
2022-09-28T09:10:52.439Z,838.99
2022-09-28T09:11:52.431Z,838.99
2022-09-28T09:13:52.442Z,838.87
2022-09-28T09:14:52.397Z,838.81
2022-09-28T09:15:52.385Z,838.79
2022-09-28T09:16:52.430Z,838.79
2022-09-28T09:17:52.359Z,838.82
2022-09-28T09:18:52.420Z,838.85
2022-09-28T09:19:52.365Z,838.90
2022-09-28T09:20:52.332Z,838.91
2022-09-28T09:21:52.533Z,838.90
2022-09-28T09:22:52.325Z,838.86
2022-09-28T09:23:52.362Z,838.85
2022-09-28T09:24:52.287Z,838.81
2022-09-28T09:25:52.276Z,838.77
2022-09-28T09:26:52.328Z,838.73
2022-09-28T09:27:52.266Z,838.70
2022-09-28T09:28:52.256Z,838.68
2022-09-28T09:29:52.261Z,838.66
2022-09-28T09:30:52.259Z,838.65
2022-09-28T09:31:52.288Z,838.68
2022-09-28T09:32:52.200Z,838.72
2022-09-28T09:33:52.188Z,838.72
2022-09-28T09:34:52.191Z,838.66
2022-09-28T09:35:52.165Z,838.65
2022-09-28T09:36:52.154Z,838.61
2022-09-28T09:37:55.256Z,838.65
2022-09-28T09:38:53.137Z,838.62
2022-09-28T09:39:52.123Z,838.64
2022-09-28T09:40:52.364Z,838.65
2022-09-28T09:41:52.104Z,838.70
2022-09-28T09:42:52.091Z,838.64
2022-09-28T09:43:52.085Z,838.58
2022-09-28T09:44:52.069Z,838.51
2022-09-28T09:45:52.131Z,838.50
2022-09-28T09:46:52.057Z,838.54
2022-09-28T09:47:52.034Z,838.55
2022-09-28T09:48:52.024Z,838.57
2022-09-28T09:49:52.025Z,838.58
2022-09-28T09:50:52.022Z,838.58
2022-09-28T09:51:51.991Z,838.54
2022-09-28T09:52:52.006Z,838.59
2022-09-28T09:53:51.970Z,838.53
2022-09-28T09:54:51.960Z,838.55
2022-09-28T09:55:51.970Z,838.55
2022-09-28T09:56:51.952Z,838.53
2022-09-28T09:57:51.929Z,838.54
2022-09-28T09:58:51.926Z,838.53
2022-09-28T09:59:51.904Z,838.56
2022-09-28T10:00:52.010Z,838.53
2022-09-28T10:01:51.945Z,838.47
2022-09-28T10:02:51.948Z,838.48
2022-09-28T10:03:51.872Z,838.46
2022-09-28T10:04:51.849Z,838.52
2022-09-28T10:05:51.839Z,838.49
2022-09-28T10:06:51.838Z,838.47
2022-09-28T10:07:51.880Z,838.41
2022-09-28T10:08:51.805Z,838.40
2022-09-28T10:09:51.819Z,838.41
2022-09-28T10:10:51.783Z,838.41
2022-09-28T10:11:51.772Z,838.42
2022-09-28T10:12:51.759Z,838.39
2022-09-28T10:13:51.825Z,838.40
2022-09-28T10:14:51.749Z,838.44
2022-09-28T10:15:51.734Z,838.42
2022-09-28T10:16:51.783Z,838.44
2022-09-28T10:17:51.732Z,838.44
2022-09-28T10:18:51.707Z,838.43
2022-09-28T10:19:51.752Z,838.44
2022-09-28T10:20:51.682Z,838.52
2022-09-28T10:21:51.659Z,838.55
2022-09-28T10:22:51.651Z,838.53
2022-09-28T10:23:51.638Z,838.52
2022-09-28T10:24:51.645Z,838.48
2022-09-28T10:25:51.676Z,838.41
2022-09-28T10:26:51.607Z,838.38
2022-09-28T10:27:51.597Z,838.38
2022-09-28T10:28:51.583Z,838.40
2022-09-28T10:29:51.572Z,838.39
2022-09-28T10:30:51.678Z,838.37
2022-09-28T10:31:51.623Z,838.36
2022-09-28T10:32:51.540Z,838.39
2022-09-28T10:33:51.567Z,838.43
2022-09-28T10:34:51.519Z,838.49
2022-09-28T10:35:51.519Z,838.47
2022-09-28T10:36:51.502Z,838.50
2022-09-28T10:37:51.545Z,838.49
2022-09-28T10:38:51.476Z,838.49
2022-09-28T10:39:51.467Z,838.50
2022-09-28T10:40:51.551Z,838.45
2022-09-28T10:41:51.442Z,838.40
2022-09-28T10:42:51.432Z,838.35
2022-09-28T10:43:53.822Z,838.42
2022-09-28T10:44:51.413Z,838.39
2022-09-28T10:45:51.434Z,838.31
2022-09-28T10:46:51.398Z,838.35
2022-09-28T10:47:51.381Z,838.30
2022-09-28T10:48:51.372Z,838.27
2022-09-28T10:49:51.390Z,838.30
2022-09-28T10:50:51.382Z,838.27
2022-09-28T10:51:51.366Z,838.34
2022-09-28T10:52:51.344Z,838.28
2022-09-28T10:53:51.309Z,838.30
2022-09-28T10:54:51.297Z,838.29
2022-09-28T10:55:51.434Z,838.31
2022-09-28T10:56:51.307Z,838.22
2022-09-28T10:57:51.266Z,838.23
2022-09-28T10:58:51.268Z,838.22
2022-09-28T10:59:51.245Z,838.18
2022-09-28T11:00:51.232Z,838.22
2022-09-28T11:01:51.311Z,838.27
2022-09-28T11:02:51.300Z,838.31
2022-09-28T11:03:51.210Z,838.32
2022-09-28T11:04:51.192Z,838.22
2022-09-28T11:05:51.209Z,838.20
2022-09-28T11:06:51.243Z,838.20
2022-09-28T11:07:51.157Z,838.21
2022-09-28T11:08:51.169Z,838.22
2022-09-28T11:09:51.305Z,838.27
2022-09-28T11:10:51.123Z,838.23
2022-09-28T11:11:51.113Z,838.25
2022-09-28T11:12:51.114Z,838.25
2022-09-28T11:13:51.090Z,838.27
2022-09-28T11:14:51.133Z,838.26
2022-09-28T11:15:51.071Z,838.20
2022-09-28T11:16:51.143Z,838.19
2022-09-28T11:17:51.046Z,838.22
2022-09-28T11:18:51.046Z,838.26
2022-09-28T11:19:51.024Z,838.19
2022-09-28T11:20:51.091Z,838.19
2022-09-28T11:21:51.027Z,838.14
2022-09-28T11:22:53.180Z,838.17
2022-09-28T11:23:50.982Z,838.15
2022-09-28T11:24:50.973Z,838.16
2022-09-28T11:25:50.958Z,838.15
2022-09-28T11:26:50.955Z,838.14
2022-09-28T11:27:50.942Z,838.10
2022-09-28T11:28:50.931Z,838.10
2022-09-28T11:29:50.923Z,838.16
2022-09-28T11:30:50.959Z,838.11
2022-09-28T11:31:50.891Z,838.11
2022-09-28T11:32:50.953Z,838.07
2022-09-28T11:33:50.880Z,838.09
2022-09-28T11:34:59.978Z,838.13
2022-09-28T11:35:51.844Z,838.16
2022-09-28T11:36:50.834Z,838.13
2022-09-28T11:37:50.849Z,838.20
2022-09-28T11:38:50.897Z,838.17
2022-09-28T11:39:50.810Z,838.13
2022-09-28T11:40:50.883Z,838.11
2022-09-28T11:41:50.782Z,838.13
2022-09-28T11:42:50.796Z,838.12
2022-09-28T11:43:50.757Z,838.15
2022-09-28T11:44:50.806Z,838.16
2022-09-28T11:45:50.786Z,838.21
2022-09-28T11:46:50.723Z,838.21
2022-09-28T11:47:50.714Z,838.16
2022-09-28T11:48:50.714Z,838.12
2022-09-28T11:49:50.699Z,838.09
2022-09-28T11:50:50.753Z,838.13
2022-09-28T11:51:50.669Z,838.07
2022-09-28T11:52:50.658Z,838.08
2022-09-28T11:53:50.673Z,838.06
2022-09-28T11:54:50.653Z,838.09
2022-09-28T11:55:50.625Z,838.04
2022-09-28T11:56:50.717Z,838.05
2022-09-28T11:57:50.609Z,838.07
2022-09-28T11:58:50.610Z,838.06
2022-09-28T11:59:50.581Z,838.02
2022-09-28T12:00:50.579Z,837.97
2022-09-28T12:01:50.567Z,837.96
2022-09-28T12:02:50.689Z,837.97
2022-09-28T12:03:50.700Z,837.97
2022-09-28T12:04:50.544Z,837.98
2022-09-28T12:05:50.518Z,838.03
2022-09-28T12:06:50.519Z,837.97
2022-09-28T12:07:50.494Z,837.97
2022-09-28T12:08:50.507Z,837.95
2022-09-28T12:09:50.525Z,838.02
2022-09-28T12:10:50.462Z,838.03
2022-09-28T12:11:50.462Z,838.04
2022-09-28T12:12:50.450Z,838.04
2022-09-28T12:13:50.445Z,838.03
2022-09-28T12:14:50.457Z,838.03
2022-09-28T12:16:20.067Z,838.01
2022-09-28T12:17:05.913Z,837.98
2022-09-28T12:17:51.486Z,837.97
2022-09-28T12:18:50.458Z,837.99
2022-09-28T12:19:50.379Z,838.02
2022-09-28T12:20:50.391Z,838.00
2022-09-28T12:21:50.358Z,837.97
2022-09-28T12:22:50.333Z,838.02
2022-09-28T12:23:50.319Z,837.99
2022-09-28T12:24:50.313Z,838.05
2022-09-28T12:25:50.330Z,838.02
2022-09-28T12:26:50.365Z,837.96
2022-09-28T12:27:50.280Z,837.89
2022-09-28T12:28:50.268Z,837.87
2022-09-28T12:29:50.317Z,837.88
2022-09-28T12:30:50.315Z,837.87